Jackson Hole, Wyoming
Current Conditions -  °F | °C
As of 3:51 PM on Sunday 21 Dec 2014 (Local Time) from KJAC Reporting Station
Broken Clouds Broken Clouds  
Wind Chill: 30°   Ceiling: 4200
Heat Index: 39°   Visibility: 10mi
Dew Point: 27°   Wind: 16mph
Humidity: 61%   Direction: 260°W
Pressure: 29.69"   Gusts: 39mph
Location:  43.48°N, 110.761°W
Report Text: KJAC 212251Z 26014G34KT 10SM FEW021 SCT033 BKN042 04/M03 A2969
Loading
Personal Weather Stations






























Interactive Weather Map New forecast layout! Learn more

10-Day Weather Forecast

Advertisements
Track Severe Weather on mobile